Arley, Alabama
Current Conditions -  °F | °C
As of 4:35 AM on Sunday 26 Oct 2014 (Local Time) from KJFX Reporting Station
Moderate Fog Moderate Fog  
Wind Chill: 11°   Ceiling: 100
Heat Index: 11°   Visibility: 0mi
Dew Point: 11°   Wind: 0mph
Humidity: 100%   Direction: NA
Pressure: 30.03"   Gusts: NA
Location:  34.08°N, 87.21°W
Report Text: KJFX 260935Z AUTO 00000KT M1/4SM FG OVC001 11/11 A3003 RMK A02 P-128
Loading
Personal Weather Stations






























Interactive Weather Map
Tropical Storm Tracking
New forecast layout! Learn more

10-Day Weather Forecast

Advertisements
Track Severe Weather on mobile